Weather at Portland International Airport

Public forecast

Using degrees Fahrenheit for public forecast. Weather courtesy of forecast.io.

Current aviation weather report (METAR) for Portland International Airport

Retrieved 2021/01/26 08:14 UTC (27 minutes ago):

KPDX 260814Z 14006KT 10SM OVC014 03/02 A2986

Aviation forecast (TAF) for Portland International Airport

Retrieved 2021/01/26 06:42 UTC (2 hours ago):

TAF KPDX 260541Z 2606/2706 10005KT P6SM SCT030 BKN040 FM261100 12007KT P6SM BKN120 FM261800 10012G22KT P6SM SCT060 OVC100 FM262200 10015G27KT 6SM -RA BKN035 OVC050 FM270500 10013KT P6SM SCT030 OVC040